sensor_id;sensor_type;location;lat;lon;timestamp;temperature;humidity
11599;DHT22;5855;48.840;9.188;2022-08-21T00:00:44;16.10;99.90
11599;DHT22;5855;48.840;9.188;2022-08-21T00:03:12;16.20;99.90
11599;DHT22;5855;48.840;9.188;2022-08-21T00:05:44;16.20;99.90
11599;DHT22;5855;48.840;9.188;2022-08-21T00:08:12;16.10;99.90
11599;DHT22;5855;48.840;9.188;2022-08-21T00:10:40;16.10;99.90
11599;DHT22;5855;48.840;9.188;2022-08-21T00:13:08;16.00;99.90
11599;DHT22;5855;48.840;9.188;2022-08-21T00:15:37;16.00;99.90
11599;DHT22;5855;48.840;9.188;2022-08-21T00:18:05;15.90;99.90
11599;DHT22;5855;48.840;9.188;2022-08-21T00:20:33;15.90;99.90
11599;DHT22;5855;48.840;9.188;2022-08-21T00:23:00;15.90;99.90
11599;DHT22;5855;48.840;9.188;2022-08-21T00:25:29;15.80;99.90
11599;DHT22;5855;48.840;9.188;2022-08-21T00:27:56;15.80;99.90
11599;DHT22;5855;48.840;9.188;2022-08-21T00:30:25;15.70;99.90
11599;DHT22;5855;48.840;9.188;2022-08-21T00:32:54;15.70;99.90
11599;DHT22;5855;48.840;9.188;2022-08-21T00:35:24;15.60;99.90
11599;DHT22;5855;48.840;9.188;2022-08-21T00:37:51;15.60;99.90
11599;DHT22;5855;48.840;9.188;2022-08-21T00:40:20;15.50;99.90
11599;DHT22;5855;48.840;9.188;2022-08-21T00:42:49;15.50;99.90
11599;DHT22;5855;48.840;9.188;2022-08-21T00:45:16;15.40;99.90
11599;DHT22;5855;48.840;9.188;2022-08-21T00:47:43;15.40;99.90
11599;DHT22;5855;48.840;9.188;2022-08-21T00:50:11;15.40;99.90
11599;DHT22;5855;48.840;9.188;2022-08-21T00:52:39;15.40;99.90
11599;DHT22;5855;48.840;9.188;2022-08-21T00:55:09;15.30;99.90
11599;DHT22;5855;48.840;9.188;2022-08-21T00:57:39;15.30;99.90
11599;DHT22;5855;48.840;9.188;2022-08-21T01:00:14;15.20;99.90
11599;DHT22;5855;48.840;9.188;2022-08-21T01:02:41;15.10;99.90
11599;DHT22;5855;48.840;9.188;2022-08-21T01:05:09;15.10;99.90
11599;DHT22;5855;48.840;9.188;2022-08-21T01:07:36;15.10;99.90
11599;DHT22;5855;48.840;9.188;2022-08-21T01:10:04;15.00;99.90
11599;DHT22;5855;48.840;9.188;2022-08-21T01:12:32;15.00;99.90
11599;DHT22;5855;48.840;9.188;2022-08-21T01:15:00;15.00;99.90
11599;DHT22;5855;48.840;9.188;2022-08-21T01:17:29;14.90;99.90
11599;DHT22;5855;48.840;9.188;2022-08-21T01:19:58;14.90;99.90
11599;DHT22;5855;48.840;9.188;2022-08-21T01:22:26;14.90;99.90
11599;DHT22;5855;48.840;9.188;2022-08-21T01:24:53;15.00;99.90
11599;DHT22;5855;48.840;9.188;2022-08-21T01:27:20;14.90;99.90
11599;DHT22;5855;48.840;9.188;2022-08-21T01:29:53;14.90;99.90
11599;DHT22;5855;48.840;9.188;2022-08-21T01:32:21;14.90;99.90
11599;DHT22;5855;48.840;9.188;2022-08-21T01:34:49;14.90;99.90
11599;DHT22;5855;48.840;9.188;2022-08-21T01:37:17;14.90;99.90
11599;DHT22;5855;48.840;9.188;2022-08-21T01:39:47;14.90;99.90
11599;DHT22;5855;48.840;9.188;2022-08-21T01:42:14;14.80;99.90
11599;DHT22;5855;48.840;9.188;2022-08-21T01:44:41;14.80;99.90
11599;DHT22;5855;48.840;9.188;2022-08-21T01:47:11;14.80;99.90
11599;DHT22;5855;48.840;9.188;2022-08-21T01:49:39;14.70;99.90
11599;DHT22;5855;48.840;9.188;2022-08-21T01:52:06;14.60;99.90
11599;DHT22;5855;48.840;9.188;2022-08-21T01:54:33;14.60;99.90
11599;DHT22;5855;48.840;9.188;2022-08-21T01:57:02;14.50;99.90
11599;DHT22;5855;48.840;9.188;2022-08-21T01:59:30;14.50;99.90
11599;DHT22;5855;48.840;9.188;2022-08-21T02:01:57;14.50;99.90
11599;DHT22;5855;48.840;9.188;2022-08-21T02:04:24;14.40;99.90
11599;DHT22;5855;48.840;9.188;2022-08-21T02:06:51;14.40;99.90
11599;DHT22;5855;48.840;9.188;2022-08-21T02:09:18;14.40;99.90
11599;DHT22;5855;48.840;9.188;2022-08-21T02:11:47;14.40;99.90
11599;DHT22;5855;48.840;9.188;2022-08-21T02:14:16;14.40;99.90
11599;DHT22;5855;48.840;9.188;2022-08-21T02:16:43;14.30;99.90
11599;DHT22;5855;48.840;9.188;2022-08-21T02:19:12;14.30;99.90
11599;DHT22;5855;48.840;9.188;2022-08-21T02:21:39;14.30;99.90
11599;DHT22;5855;48.840;9.188;2022-08-21T02:24:07;14.30;99.90
11599;DHT22;5855;48.840;9.188;2022-08-21T02:26:34;14.20;99.90
11599;DHT22;5855;48.840;9.188;2022-08-21T02:29:03;14.20;99.90
11599;DHT22;5855;48.840;9.188;2022-08-21T02:31:32;14.20;99.90
11599;DHT22;5855;48.840;9.188;2022-08-21T02:33:59;14.10;99.90
11599;DHT22;5855;48.840;9.188;2022-08-21T02:36:26;14.10;99.90
11599;DHT22;5855;48.840;9.188;2022-08-21T02:38:53;14.10;99.90
11599;DHT22;5855;48.840;9.188;2022-08-21T02:41:21;14.10;99.90
11599;DHT22;5855;48.840;9.188;2022-08-21T02:43:48;14.00;99.90
11599;DHT22;5855;48.840;9.188;2022-08-21T02:46:17;14.00;99.90
11599;DHT22;5855;48.840;9.188;2022-08-21T02:48:46;14.00;99.90
11599;DHT22;5855;48.840;9.188;2022-08-21T02:51:16;14.00;99.90
11599;DHT22;5855;48.840;9.188;2022-08-21T02:53:44;13.90;99.90
11599;DHT22;5855;48.840;9.188;2022-08-21T02:56:14;13.80;99.90
11599;DHT22;5855;48.840;9.188;2022-08-21T02:58:43;13.80;99.90
11599;DHT22;5855;48.840;9.188;2022-08-21T03:01:11;13.70;99.90
11599;DHT22;5855;48.840;9.188;2022-08-21T03:03:39;13.70;99.90
11599;DHT22;5855;48.840;9.188;2022-08-21T03:06:08;13.80;99.90
11599;DHT22;5855;48.840;9.188;2022-08-21T03:08:37;13.70;99.90
11599;DHT22;5855;48.840;9.188;2022-08-21T03:11:04;13.70;99.90
11599;DHT22;5855;48.840;9.188;2022-08-21T03:13:31;13.60;99.90
11599;DHT22;5855;48.840;9.188;2022-08-21T03:15:58;13.60;99.90
11599;DHT22;5855;48.840;9.188;2022-08-21T03:18:25;13.60;99.90
11599;DHT22;5855;48.840;9.188;2022-08-21T03:20:52;13.60;99.90
11599;DHT22;5855;48.840;9.188;2022-08-21T03:23:20;13.60;99.90
11599;DHT22;5855;48.840;9.188;2022-08-21T03:25:48;13.50;99.90
11599;DHT22;5855;48.840;9.188;2022-08-21T03:28:19;13.50;99.90
11599;DHT22;5855;48.840;9.188;2022-08-21T03:30:48;13.40;99.90
11599;DHT22;5855;48.840;9.188;2022-08-21T03:33:16;13.40;99.90
11599;DHT22;5855;48.840;9.188;2022-08-21T03:35:43;13.40;99.90
11599;DHT22;5855;48.840;9.188;2022-08-21T03:38:11;13.40;99.90
11599;DHT22;5855;48.840;9.188;2022-08-21T03:40:40;13.40;99.90
11599;DHT22;5855;48.840;9.188;2022-08-21T03:43:07;13.40;99.90
11599;DHT22;5855;48.840;9.188;2022-08-21T03:45:35;13.40;99.90
11599;DHT22;5855;48.840;9.188;2022-08-21T03:48:04;13.30;99.90
11599;DHT22;5855;48.840;9.188;2022-08-21T03:50:34;13.30;99.90
11599;DHT22;5855;48.840;9.188;2022-08-21T03:53:03;13.30;99.90
11599;DHT22;5855;48.840;9.188;2022-08-21T03:55:30;13.20;99.90
11599;DHT22;5855;48.840;9.188;2022-08-21T03:57:58;13.20;99.90
11599;DHT22;5855;48.840;9.188;2022-08-21T04:00:26;13.20;99.90
11599;DHT22;5855;48.840;9.188;2022-08-21T04:02:52;13.20;99.90
11599;DHT22;5855;48.840;9.188;2022-08-21T04:05:20;13.20;99.90
11599;DHT22;5855;48.840;9.188;2022-08-21T04:07:55;13.20;99.90
11599;DHT22;5855;48.840;9.188;2022-08-21T04:10:23;13.20;99.90
11599;DHT22;5855;48.840;9.188;2022-08-21T04:12:51;13.20;99.90
11599;DHT22;5855;48.840;9.188;2022-08-21T04:15:20;13.10;99.90
11599;DHT22;5855;48.840;9.188;2022-08-21T04:17:47;13.10;99.90
11599;DHT22;5855;48.840;9.188;2022-08-21T04:20:15;13.10;99.90
11599;DHT22;5855;48.840;9.188;2022-08-21T04:22:42;13.10;99.90
11599;DHT22;5855;48.840;9.188;2022-08-21T04:25:10;13.10;99.90
11599;DHT22;5855;48.840;9.188;2022-08-21T04:27:37;13.10;99.90
11599;DHT22;5855;48.840;9.188;2022-08-21T04:30:06;13.10;99.90
11599;DHT22;5855;48.840;9.188;2022-08-21T04:32:36;13.10;99.90
11599;DHT22;5855;48.840;9.188;2022-08-21T04:35:07;13.10;99.90
11599;DHT22;5855;48.840;9.188;2022-08-21T04:37:34;13.10;99.90
11599;DHT22;5855;48.840;9.188;2022-08-21T04:40:02;13.10;99.90
11599;DHT22;5855;48.840;9.188;2022-08-21T04:42:29;13.10;99.90
11599;DHT22;5855;48.840;9.188;2022-08-21T04:44:56;13.10;99.90
11599;DHT22;5855;48.840;9.188;2022-08-21T04:47:23;13.10;99.90
11599;DHT22;5855;48.840;9.188;2022-08-21T04:49:51;13.20;99.90
11599;DHT22;5855;48.840;9.188;2022-08-21T04:52:21;13.20;99.90
11599;DHT22;5855;48.840;9.188;2022-08-21T04:54:50;13.30;99.90
11599;DHT22;5855;48.840;9.188;2022-08-21T04:57:19;13.20;99.90
11599;DHT22;5855;48.840;9.188;2022-08-21T04:59:47;13.30;99.90
11599;DHT22;5855;48.840;9.188;2022-08-21T05:02:15;13.30;99.90
11599;DHT22;5855;48.840;9.188;2022-08-21T05:04:45;13.30;99.90
11599;DHT22;5855;48.840;9.188;2022-08-21T05:07:18;13.40;99.90
11599;DHT22;5855;48.840;9.188;2022-08-21T05:09:45;13.40;99.90
11599;DHT22;5855;48.840;9.188;2022-08-21T05:12:13;13.50;99.90
11599;DHT22;5855;48.840;9.188;2022-08-21T05:14:40;13.50;99.90
11599;DHT22;5855;48.840;9.188;2022-08-21T05:17:07;13.60;99.90
11599;DHT22;5855;48.840;9.188;2022-08-21T05:19:34;13.70;99.90
11599;DHT22;5855;48.840;9.188;2022-08-21T05:22:01;13.70;99.90
11599;DHT22;5855;48.840;9.188;2022-08-21T05:24:30;13.80;99.90
11599;DHT22;5855;48.840;9.188;2022-08-21T05:26:56;13.90;99.90
11599;DHT22;5855;48.840;9.188;2022-08-21T05:29:24;14.00;99.90
11599;DHT22;5855;48.840;9.188;2022-08-21T05:31:51;14.10;99.90
11599;DHT22;5855;48.840;9.188;2022-08-21T05:34:20;14.20;99.90
11599;DHT22;5855;48.840;9.188;2022-08-21T05:36:47;14.20;99.90
11599;DHT22;5855;48.840;9.188;2022-08-21T05:39:14;14.30;99.90
11599;DHT22;5855;48.840;9.188;2022-08-21T05:41:42;14.40;99.90
11599;DHT22;5855;48.840;9.188;2022-08-21T05:44:09;14.50;99.90
11599;DHT22;5855;48.840;9.188;2022-08-21T05:46:36;14.60;99.90
11599;DHT22;5855;48.840;9.188;2022-08-21T05:49:03;14.60;99.90
11599;DHT22;5855;48.840;9.188;2022-08-21T05:51:30;14.70;99.90
11599;DHT22;5855;48.840;9.188;2022-08-21T05:53:57;14.80;99.90
11599;DHT22;5855;48.840;9.188;2022-08-21T05:56:24;14.90;99.90
11599;DHT22;5855;48.840;9.188;2022-08-21T05:58:53;14.90;99.90
11599;DHT22;5855;48.840;9.188;2022-08-21T06:01:19;15.10;99.90
11599;DHT22;5855;48.840;9.188;2022-08-21T06:03:46;15.10;99.90
11599;DHT22;5855;48.840;9.188;2022-08-21T06:06:13;15.20;99.90
11599;DHT22;5855;48.840;9.188;2022-08-21T06:08:41;15.30;99.90
11599;DHT22;5855;48.840;9.188;2022-08-21T06:11:09;15.40;99.90
11599;DHT22;5855;48.840;9.188;2022-08-21T06:13:36;15.50;99.90
11599;DHT22;5855;48.840;9.188;2022-08-21T06:16:08;15.60;99.90
11599;DHT22;5855;48.840;9.188;2022-08-21T06:18:36;15.70;99.90
11599;DHT22;5855;48.840;9.188;2022-08-21T06:21:04;15.80;99.90
11599;DHT22;5855;48.840;9.188;2022-08-21T06:23:32;16.00;99.90
11599;DHT22;5855;48.840;9.188;2022-08-21T06:25:59;16.10;99.90
11599;DHT22;5855;48.840;9.188;2022-08-21T06:28:26;16.20;99.90
11599;DHT22;5855;48.840;9.188;2022-08-21T06:30:53;16.40;99.90
11599;DHT22;5855;48.840;9.188;2022-08-21T06:33:22;16.40;99.90
11599;DHT22;5855;48.840;9.188;2022-08-21T06:35:49;16.60;99.90
11599;DHT22;5855;48.840;9.188;2022-08-21T06:38:16;16.70;99.90
11599;DHT22;5855;48.840;9.188;2022-08-21T06:40:43;16.80;99.90
11599;DHT22;5855;48.840;9.188;2022-08-21T06:43:13;16.90;99.90
11599;DHT22;5855;48.840;9.188;2022-08-21T06:45:40;17.00;99.90
11599;DHT22;5855;48.840;9.188;2022-08-21T06:48:07;17.20;99.90
11599;DHT22;5855;48.840;9.188;2022-08-21T06:50:35;17.40;99.90
11599;DHT22;5855;48.840;9.188;2022-08-21T06:53:04;17.50;99.90
11599;DHT22;5855;48.840;9.188;2022-08-21T06:55:35;17.60;99.90
11599;DHT22;5855;48.840;9.188;2022-08-21T06:58:02;17.80;99.90
11599;DHT22;5855;48.840;9.188;2022-08-21T07:00:30;17.90;99.90
11599;DHT22;5855;48.840;9.188;2022-08-21T07:02:57;18.10;99.90
11599;DHT22;5855;48.840;9.188;2022-08-21T07:05:25;18.20;99.90
11599;DHT22;5855;48.840;9.188;2022-08-21T07:07:54;18.30;99.90
11599;DHT22;5855;48.840;9.188;2022-08-21T07:10:20;18.50;99.90
11599;DHT22;5855;48.840;9.188;2022-08-21T07:12:47;18.60;99.90
11599;DHT22;5855;48.840;9.188;2022-08-21T07:15:14;18.80;99.90
11599;DHT22;5855;48.840;9.188;2022-08-21T07:17:41;18.90;99.90
11599;DHT22;5855;48.840;9.188;2022-08-21T07:20:08;19.00;99.90
11599;DHT22;5855;48.840;9.188;2022-08-21T07:22:36;19.20;99.90
11599;DHT22;5855;48.840;9.188;2022-08-21T07:25:07;19.30;99.90
11599;DHT22;5855;48.840;9.188;2022-08-21T07:27:34;19.50;99.90
11599;DHT22;5855;48.840;9.188;2022-08-21T07:30:01;19.60;99.90
11599;DHT22;5855;48.840;9.188;2022-08-21T07:32:28;19.70;99.90
11599;DHT22;5855;48.840;9.188;2022-08-21T07:34:54;19.80;99.90
11599;DHT22;5855;48.840;9.188;2022-08-21T07:37:21;20.00;99.90
11599;DHT22;5855;48.840;9.188;2022-08-21T07:39:48;20.20;99.90
11599;DHT22;5855;48.840;9.188;2022-08-21T07:42:17;20.30;99.90
11599;DHT22;5855;48.840;9.188;2022-08-21T07:44:44;20.60;99.90
11599;DHT22;5855;48.840;9.188;2022-08-21T07:47:11;20.80;99.90
11599;DHT22;5855;48.840;9.188;2022-08-21T07:49:38;20.90;99.90
11599;DHT22;5855;48.840;9.188;2022-08-21T07:52:05;21.10;99.90
11599;DHT22;5855;48.840;9.188;2022-08-21T07:54:32;21.30;99.90
11599;DHT22;5855;48.840;9.188;2022-08-21T07:56:59;21.50;99.90
11599;DHT22;5855;48.840;9.188;2022-08-21T07:59:28;21.70;99.90
11599;DHT22;5855;48.840;9.188;2022-08-21T08:01:55;21.90;99.90
11599;DHT22;5855;48.840;9.188;2022-08-21T08:04:22;22.10;99.90
11599;DHT22;5855;48.840;9.188;2022-08-21T08:06:49;22.40;99.90
11599;DHT22;5855;48.840;9.188;2022-08-21T08:09:16;22.60;99.90
11599;DHT22;5855;48.840;9.188;2022-08-21T08:11:43;22.80;99.90
11599;DHT22;5855;48.840;9.188;2022-08-21T08:14:10;23.00;99.90
11599;DHT22;5855;48.840;9.188;2022-08-21T08:16:39;23.20;99.90
11599;DHT22;5855;48.840;9.188;2022-08-21T08:19:06;23.40;99.90
11599;DHT22;5855;48.840;9.188;2022-08-21T08:21:32;23.60;99.90
11599;DHT22;5855;48.840;9.188;2022-08-21T08:24:01;23.80;99.90
11599;DHT22;5855;48.840;9.188;2022-08-21T08:26:27;24.00;99.90
11599;DHT22;5855;48.840;9.188;2022-08-21T08:28:54;24.20;99.90
11599;DHT22;5855;48.840;9.188;2022-08-21T08:31:21;24.30;99.90
11599;DHT22;5855;48.840;9.188;2022-08-21T08:33:50;24.40;99.90
11599;DHT22;5855;48.840;9.188;2022-08-21T08:36:18;24.60;99.90
11599;DHT22;5855;48.840;9.188;2022-08-21T08:38:46;24.80;99.90
11599;DHT22;5855;48.840;9.188;2022-08-21T08:41:14;24.90;99.60
11599;DHT22;5855;48.840;9.188;2022-08-21T08:43:48;25.10;99.10
11599;DHT22;5855;48.840;9.188;2022-08-21T08:46:20;25.20;98.20
11599;DHT22;5855;48.840;9.188;2022-08-21T08:48:57;25.40;98.50
11599;DHT22;5855;48.840;9.188;2022-08-21T08:51:29;25.60;97.60
11599;DHT22;5855;48.840;9.188;2022-08-21T08:54:04;25.80;97.20
11599;DHT22;5855;48.840;9.188;2022-08-21T08:56:33;26.00;97.00
11599;DHT22;5855;48.840;9.188;2022-08-21T08:59:05;26.20;96.40
11599;DHT22;5855;48.840;9.188;2022-08-21T09:01:34;26.30;95.70
11599;DHT22;5855;48.840;9.188;2022-08-21T09:04:02;26.40;95.50
11599;DHT22;5855;48.840;9.188;2022-08-21T09:06:57;26.70;94.90
11599;DHT22;5855;48.840;9.188;2022-08-21T09:09:36;26.70;94.50
11599;DHT22;5855;48.840;9.188;2022-08-21T09:12:09;26.90;94.30
11599;DHT22;5855;48.840;9.188;2022-08-21T09:14:47;27.20;93.40
11599;DHT22;5855;48.840;9.188;2022-08-21T09:17:39;27.30;92.60
11599;DHT22;5855;48.840;9.188;2022-08-21T09:20:18;27.40;91.20
11599;DHT22;5855;48.840;9.188;2022-08-21T09:23:06;27.20;89.40
11599;DHT22;5855;48.840;9.188;2022-08-21T09:25:42;26.80;90.30
11599;DHT22;5855;48.840;9.188;2022-08-21T09:28:09;27.00;90.90
11599;DHT22;5855;48.840;9.188;2022-08-21T09:30:40;27.20;90.50
11599;DHT22;5855;48.840;9.188;2022-08-21T09:33:07;27.60;90.40
11599;DHT22;5855;48.840;9.188;2022-08-21T09:35:48;28.00;89.20
11599;DHT22;5855;48.840;9.188;2022-08-21T09:38:25;28.30;87.70
11599;DHT22;5855;48.840;9.188;2022-08-21T09:40:57;28.60;85.50
11599;DHT22;5855;48.840;9.188;2022-08-21T09:43:24;28.90;84.30
11599;DHT22;5855;48.840;9.188;2022-08-21T09:46:06;29.00;83.50
11599;DHT22;5855;48.840;9.188;2022-08-21T09:48:45;29.20;82.70
11599;DHT22;5855;48.840;9.188;2022-08-21T09:51:17;29.30;82.30
11599;DHT22;5855;48.840;9.188;2022-08-21T09:53:48;29.40;81.80
11599;DHT22;5855;48.840;9.188;2022-08-21T09:56:22;29.70;81.10
11599;DHT22;5855;48.840;9.188;2022-08-21T09:59:24;29.80;80.50
11599;DHT22;5855;48.840;9.188;2022-08-21T10:01:52;29.90;78.90
11599;DHT22;5855;48.840;9.188;2022-08-21T10:04:22;30.20;78.00
11599;DHT22;5855;48.840;9.188;2022-08-21T10:06:50;30.40;75.90
11599;DHT22;5855;48.840;9.188;2022-08-21T10:09:19;30.50;75.30
11599;DHT22;5855;48.840;9.188;2022-08-21T10:11:52;30.60;73.60
11599;DHT22;5855;48.840;9.188;2022-08-21T10:14:32;29.50;72.10
11599;DHT22;5855;48.840;9.188;2022-08-21T10:17:05;29.60;74.40
11599;DHT22;5855;48.840;9.188;2022-08-21T10:19:41;29.90;73.70
11599;DHT22;5855;48.840;9.188;2022-08-21T10:22:22;30.40;73.30
11599;DHT22;5855;48.840;9.188;2022-08-21T10:24:57;30.80;70.20
11599;DHT22;5855;48.840;9.188;2022-08-21T10:27:31;30.80;69.50
11599;DHT22;5855;48.840;9.188;2022-08-21T10:30:06;31.10;66.20
11599;DHT22;5855;48.840;9.188;2022-08-21T10:32:45;30.00;68.30
11599;DHT22;5855;48.840;9.188;2022-08-21T10:35:17;30.60;70.10
11599;DHT22;5855;48.840;9.188;2022-08-21T10:38:07;31.10;69.00
11599;DHT22;5855;48.840;9.188;2022-08-21T10:40:45;31.60;69.00
11599;DHT22;5855;48.840;9.188;2022-08-21T10:43:23;31.80;67.80
11599;DHT22;5855;48.840;9.188;2022-08-21T10:45:59;32.20;66.60
11599;DHT22;5855;48.840;9.188;2022-08-21T10:48:35;32.40;64.80
11599;DHT22;5855;48.840;9.188;2022-08-21T10:51:06;32.50;62.90
11599;DHT22;5855;48.840;9.188;2022-08-21T10:53:57;32.70;60.90
11599;DHT22;5855;48.840;9.188;2022-08-21T10:56:30;32.80;59.80
11599;DHT22;5855;48.840;9.188;2022-08-21T10:59:04;32.00;60.00
11599;DHT22;5855;48.840;9.188;2022-08-21T11:01:48;32.40;60.70
11599;DHT22;5855;48.840;9.188;2022-08-21T11:04:20;33.00;61.10
11599;DHT22;5855;48.840;9.188;2022-08-21T11:06:52;33.40;59.60
11599;DHT22;5855;48.840;9.188;2022-08-21T11:09:24;33.90;57.70
11599;DHT22;5855;48.840;9.188;2022-08-21T11:11:56;34.20;55.80
11599;DHT22;5855;48.840;9.188;2022-08-21T11:14:34;34.50;53.80
11599;DHT22;5855;48.840;9.188;2022-08-21T11:17:09;34.80;52.20
11599;DHT22;5855;48.840;9.188;2022-08-21T11:19:43;34.50;52.50
11599;DHT22;5855;48.840;9.188;2022-08-21T11:22:16;35.00;52.00
11599;DHT22;5855;48.840;9.188;2022-08-21T11:24:50;35.50;50.20
11599;DHT22;5855;48.840;9.188;2022-08-21T11:27:23;36.20;47.70
11599;DHT22;5855;48.840;9.188;2022-08-21T11:29:54;36.60;47.40
11599;DHT22;5855;48.840;9.188;2022-08-21T11:35:31;36.90;45.30
11599;DHT22;5855;48.840;9.188;2022-08-21T11:43:47;38.70;40.40
11599;DHT22;5855;48.840;9.188;2022-08-21T11:46:25;38.50;38.90
11599;DHT22;5855;48.840;9.188;2022-08-21T11:49:08;38.60;39.00
11599;DHT22;5855;48.840;9.188;2022-08-21T11:51:45;38.60;39.30
11599;DHT22;5855;48.840;9.188;2022-08-21T11:54:24;38.50;40.60
11599;DHT22;5855;48.840;9.188;2022-08-21T11:56:59;38.70;39.70
11599;DHT22;5855;48.840;9.188;2022-08-21T11:59:40;38.80;39.50
11599;DHT22;5855;48.840;9.188;2022-08-21T12:02:13;39.00;38.10
11599;DHT22;5855;48.840;9.188;2022-08-21T12:04:45;39.40;36.40
11599;DHT22;5855;48.840;9.188;2022-08-21T12:07:15;38.70;34.20
11599;DHT22;5855;48.840;9.188;2022-08-21T12:09:52;38.50;34.60
11599;DHT22;5855;48.840;9.188;2022-08-21T12:12:26;37.80;35.10
11599;DHT22;5855;48.840;9.188;2022-08-21T12:15:13;37.30;35.70
11599;DHT22;5855;48.840;9.188;2022-08-21T12:17:50;37.50;35.60
11599;DHT22;5855;48.840;9.188;2022-08-21T12:20:26;38.00;34.50
11599;DHT22;5855;48.840;9.188;2022-08-21T12:23:02;38.60;35.30
11599;DHT22;5855;48.840;9.188;2022-08-21T12:25:37;39.50;32.70
11599;DHT22;5855;48.840;9.188;2022-08-21T12:28:09;39.80;31.40
11599;DHT22;5855;48.840;9.188;2022-08-21T12:30:38;40.50;31.30
11599;DHT22;5855;48.840;9.188;2022-08-21T12:33:20;41.10;29.10
11599;DHT22;5855;48.840;9.188;2022-08-21T12:35:48;41.90;28.20
11599;DHT22;5855;48.840;9.188;2022-08-21T12:38:20;42.60;27.30
11599;DHT22;5855;48.840;9.188;2022-08-21T12:40:52;43.30;26.20
11599;DHT22;5855;48.840;9.188;2022-08-21T12:43:25;43.50;25.80
11599;DHT22;5855;48.840;9.188;2022-08-21T12:45:54;44.00;25.10
11599;DHT22;5855;48.840;9.188;2022-08-21T12:48:26;44.60;25.00
11599;DHT22;5855;48.840;9.188;2022-08-21T12:50:55;44.80;23.70
11599;DHT22;5855;48.840;9.188;2022-08-21T12:53:28;44.70;23.50
11599;DHT22;5855;48.840;9.188;2022-08-21T12:55:57;45.30;22.80
11599;DHT22;5855;48.840;9.188;2022-08-21T12:58:31;44.00;21.50
11599;DHT22;5855;48.840;9.188;2022-08-21T13:01:03;40.90;23.40
11599;DHT22;5855;48.840;9.188;2022-08-21T13:03:30;40.40;24.30
11599;DHT22;5855;48.840;9.188;2022-08-21T13:05:58;41.00;24.40
11599;DHT22;5855;48.840;9.188;2022-08-21T13:08:26;41.90;24.30
11599;DHT22;5855;48.840;9.188;2022-08-21T13:10:58;43.20;23.60
11599;DHT22;5855;48.840;9.188;2022-08-21T13:13:26;43.90;23.20
11599;DHT22;5855;48.840;9.188;2022-08-21T13:15:59;43.40;22.20
11599;DHT22;5855;48.840;9.188;2022-08-21T13:18:29;42.60;22.20
11599;DHT22;5855;48.840;9.188;2022-08-21T13:21:04;42.90;22.40
11599;DHT22;5855;48.840;9.188;2022-08-21T13:23:32;43.40;22.20
11599;DHT22;5855;48.840;9.188;2022-08-21T13:25:59;43.90;21.90
11599;DHT22;5855;48.840;9.188;2022-08-21T13:28:32;44.10;21.20
11599;DHT22;5855;48.840;9.188;2022-08-21T13:31:06;44.70;20.60
11599;DHT22;5855;48.840;9.188;2022-08-21T13:33:34;43.10;21.50
11599;DHT22;5855;48.840;9.188;2022-08-21T13:36:05;44.40;21.20
11599;DHT22;5855;48.840;9.188;2022-08-21T13:38:36;43.20;20.90
11599;DHT22;5855;48.840;9.188;2022-08-21T13:41:07;42.40;21.70
11599;DHT22;5855;48.840;9.188;2022-08-21T13:43:37;42.80;21.60
11599;DHT22;5855;48.840;9.188;2022-08-21T13:46:10;43.60;21.30
11599;DHT22;5855;48.840;9.188;2022-08-21T13:48:38;44.90;20.50
11599;DHT22;5855;48.840;9.188;2022-08-21T13:51:05;45.70;19.70
11599;DHT22;5855;48.840;9.188;2022-08-21T13:53:36;45.70;19.20
11599;DHT22;5855;48.840;9.188;2022-08-21T13:56:04;46.20;19.10
11599;DHT22;5855;48.840;9.188;2022-08-21T13:58:33;46.30;19.00
11599;DHT22;5855;48.840;9.188;2022-08-21T14:01:18;46.80;18.30
11599;DHT22;5855;48.840;9.188;2022-08-21T14:03:47;46.90;17.70
11599;DHT22;5855;48.840;9.188;2022-08-21T14:06:18;46.90;16.80
11599;DHT22;5855;48.840;9.188;2022-08-21T14:08:50;47.00;17.10
11599;DHT22;5855;48.840;9.188;2022-08-21T14:11:17;47.70;17.00
11599;DHT22;5855;48.840;9.188;2022-08-21T14:13:48;48.00;16.60
11599;DHT22;5855;48.840;9.188;2022-08-21T14:16:19;48.60;16.30
11599;DHT22;5855;48.840;9.188;2022-08-21T14:18:50;49.40;15.20
11599;DHT22;5855;48.840;9.188;2022-08-21T14:21:30;49.00;15.10
11599;DHT22;5855;48.840;9.188;2022-08-21T14:24:08;49.60;14.60
11599;DHT22;5855;48.840;9.188;2022-08-21T14:26:37;49.80;14.30
11599;DHT22;5855;48.840;9.188;2022-08-21T14:29:09;49.70;13.90
11599;DHT22;5855;48.840;9.188;2022-08-21T14:31:38;49.50;13.60
11599;DHT22;5855;48.840;9.188;2022-08-21T14:34:05;48.70;13.80
11599;DHT22;5855;48.840;9.188;2022-08-21T14:36:32;48.00;14.40
11599;DHT22;5855;48.840;9.188;2022-08-21T14:38:59;47.80;14.20
11599;DHT22;5855;48.840;9.188;2022-08-21T14:41:27;48.20;14.20
11599;DHT22;5855;48.840;9.188;2022-08-21T14:44:02;48.50;13.70
11599;DHT22;5855;48.840;9.188;2022-08-21T14:46:40;48.90;13.20
11599;DHT22;5855;48.840;9.188;2022-08-21T14:49:07;49.30;13.10
11599;DHT22;5855;48.840;9.188;2022-08-21T14:51:34;49.90;13.10
11599;DHT22;5855;48.840;9.188;2022-08-21T14:54:01;49.50;13.00
11599;DHT22;5855;48.840;9.188;2022-08-21T14:56:45;47.90;13.60
11599;DHT22;5855;48.840;9.188;2022-08-21T14:59:12;47.30;14.30
11599;DHT22;5855;48.840;9.188;2022-08-21T15:01:40;47.80;14.10
11599;DHT22;5855;48.840;9.188;2022-08-21T15:04:07;48.50;13.40
11599;DHT22;5855;48.840;9.188;2022-08-21T15:06:34;49.00;13.40
11599;DHT22;5855;48.840;9.188;2022-08-21T15:09:01;49.90;13.10
11599;DHT22;5855;48.840;9.188;2022-08-21T15:11:29;50.40;12.40
11599;DHT22;5855;48.840;9.188;2022-08-21T15:13:58;50.70;12.40
11599;DHT22;5855;48.840;9.188;2022-08-21T15:16:30;51.00;11.80
11599;DHT22;5855;48.840;9.188;2022-08-21T15:18:58;50.80;11.90
11599;DHT22;5855;48.840;9.188;2022-08-21T15:21:25;51.00;11.70
11599;DHT22;5855;48.840;9.188;2022-08-21T15:23:52;51.10;11.60
11599;DHT22;5855;48.840;9.188;2022-08-21T15:26:20;51.00;11.80
11599;DHT22;5855;48.840;9.188;2022-08-21T15:28:48;50.90;11.00
11599;DHT22;5855;48.840;9.188;2022-08-21T15:31:15;50.70;11.40
11599;DHT22;5855;48.840;9.188;2022-08-21T15:33:42;50.90;11.10
11599;DHT22;5855;48.840;9.188;2022-08-21T15:36:10;51.10;10.80
11599;DHT22;5855;48.840;9.188;2022-08-21T15:38:37;50.70;10.70
11599;DHT22;5855;48.840;9.188;2022-08-21T15:41:05;51.30;10.60
11599;DHT22;5855;48.840;9.188;2022-08-21T15:43:37;51.20;10.40
11599;DHT22;5855;48.840;9.188;2022-08-21T15:46:10;51.80;10.40
11599;DHT22;5855;48.840;9.188;2022-08-21T15:48:38;51.00;10.60
11599;DHT22;5855;48.840;9.188;2022-08-21T15:51:06;51.20;10.40
11599;DHT22;5855;48.840;9.188;2022-08-21T15:53:34;51.50;10.40
11599;DHT22;5855;48.840;9.188;2022-08-21T15:56:04;51.50;10.40
11599;DHT22;5855;48.840;9.188;2022-08-21T15:58:31;51.50;10.50
11599;DHT22;5855;48.840;9.188;2022-08-21T16:00:59;51.60;10.30
11599;DHT22;5855;48.840;9.188;2022-08-21T16:03:26;51.50;10.20
11599;DHT22;5855;48.840;9.188;2022-08-21T16:05:53;51.60;10.20
11599;DHT22;5855;48.840;9.188;2022-08-21T16:08:23;51.30;10.20
11599;DHT22;5855;48.840;9.188;2022-08-21T16:10:52;51.10;10.40